KFHR Airport Information

Runway Information
Runway 16 Length 3402 ft width 75 ft
Elevation 113 ft Threshold 0 ft Heading 177
Runway 34 Length 3402 ft Width 75 ft
Elevation 84 ft Threshold 0 ft Heading 357
Airport Frequencies
Type A/D Name WHIDBEY AP Frequency 118.2 MHZ
Type ASOS Name ASOS Frequency 135.675 MHZ
Type CTAF Name CTAF Frequency 128.25 MHZ
Airport Navaids
Airport Weather Information & NOTAM
ADDS - METARS form results

(2043 UTC 23 February 2019)
Data provider http://aviationweather.gov/metar/data/
 
METAR text: KFHR 231953Z AUTO 14010KT 10SM OVC017 06/02 A3010 RMK AO2 SLP195 T00560017
Conditions at: KFHR (FRIDAY HARBOR , WA, US) observed 1953 UTC 23 February 2019
Temperature: 5.6°C (42°F)
Dewpoint: 1.7°C (35°F) [RH = 76%]
Pressure (altimeter): 30.10 inches Hg (1019.4 mb)
[Sea-level pressure: 1019.5 mb]
Winds: from the SE (140 degrees) at 12 MPH (10 knots; 5.1 m/s)
Visibility: 10 or more miles (16+ km)
Ceiling: 1700 feet AGL
Clouds: overcast cloud deck at 1700 feet AGL
Weather: automated observation with no human augmentation;
there may or may not be significant weather present at this time